createdAt,value
2019-05-12T00:05:48.872Z,21.9
2019-05-12T00:15:48.174Z,21.9
2019-05-12T00:25:47.975Z,21.8
2019-05-12T00:35:48.244Z,21.8
2019-05-12T00:45:48.080Z,21.8
2019-05-12T00:55:47.518Z,21.8
2019-05-12T01:05:44.450Z,21.8
2019-05-12T01:15:43.661Z,21.8
2019-05-12T01:28:42.993Z,21.7
2019-05-12T01:38:42.205Z,21.7
2019-05-12T01:48:41.416Z,21.7
2019-05-12T01:58:40.626Z,21.6
2019-05-12T02:08:39.842Z,21.7
2019-05-12T02:18:39.050Z,21.6
2019-05-12T02:28:39.422Z,21.6
2019-05-12T02:38:37.560Z,21.6
2019-05-12T02:51:24.778Z,21.6
2019-05-12T03:01:24.033Z,21.6
2019-05-12T03:11:20.567Z,21.6
2019-05-12T03:21:19.828Z,21.6
2019-05-12T03:31:24.734Z,21.6
2019-05-12T03:41:18.197Z,21.5
2019-05-12T03:51:17.423Z,21.5
2019-05-12T04:01:16.709Z,21.5
2019-05-12T04:11:15.997Z,21.5
2019-05-12T04:21:15.803Z,21.5
2019-05-12T04:31:15.408Z,21.5
2019-05-12T04:41:14.632Z,21.6
2019-05-12T04:51:15.327Z,21.6
2019-05-12T05:01:15.437Z,21.6
2019-05-12T05:11:14.428Z,21.7
2019-05-12T05:21:10.771Z,21.8
2019-05-12T05:31:09.973Z,21.9
2019-05-12T05:41:10.522Z,22
2019-05-12T05:51:09.118Z,22.1
2019-05-12T06:01:08.238Z,22.3
2019-05-12T06:11:08.587Z,22.4
2019-05-12T06:21:06.032Z,22.5
2019-05-12T06:31:05.260Z,22.6
2019-05-12T06:41:04.459Z,22.7
2019-05-12T06:51:04.075Z,22.9
2019-05-12T07:02:18.052Z,23.1
2019-05-12T07:12:17.259Z,23.2
2019-05-12T07:22:21.826Z,23.3
2019-05-12T07:32:21.500Z,23.4
2019-05-12T07:42:14.898Z,23.4
2019-05-12T07:52:14.114Z,23.5
2019-05-12T08:04:04.327Z,23.6
2019-05-12T08:14:03.451Z,23.6
2019-05-12T08:25:24.627Z,23.6
2019-05-12T08:35:26.766Z,23.5
2019-05-12T08:45:24.888Z,23.4
2019-05-12T08:55:22.656Z,23.4
2019-05-12T09:05:18.743Z,23.5
2019-05-12T09:15:18.005Z,23.5
2019-05-12T09:25:17.185Z,23.4
2019-05-12T09:35:16.473Z,23.4
2019-05-12T09:45:15.761Z,23.4
2019-05-12T09:55:15.114Z,23.4
2019-05-12T10:05:14.616Z,23.4
2019-05-12T10:18:10.923Z,23.4
2019-05-12T10:28:11.275Z,23.3
2019-05-12T10:38:10.423Z,23.3
2019-05-12T10:48:04.997Z,23.3
2019-05-12T10:52:34.907Z,23.3
2019-05-12T11:02:33.629Z,23.2
2019-05-12T11:12:33.193Z,23.1
2019-05-12T11:22:13.945Z,23.1
2019-05-12T11:32:14.008Z,23.3
2019-05-12T11:42:13.624Z,23.5
2019-05-12T11:52:16.522Z,23.3
2019-05-12T11:57:13.295Z,23.1
2019-05-12T12:07:10.583Z,22.9
2019-05-12T12:17:09.788Z,22.7
2019-05-12T12:27:09.002Z,22.7
2019-05-12T12:37:08.216Z,22.8
2019-05-12T12:47:07.429Z,22.9
2019-05-12T12:57:09.857Z,22.9
2019-05-12T13:07:05.996Z,23
2019-05-12T13:17:05.240Z,23.1
2019-05-12T13:27:04.533Z,23.1
2019-05-12T13:37:03.818Z,23.1
2019-05-12T13:47:03.437Z,23.2
2019-05-12T13:57:03.592Z,23.1
2019-05-12T14:07:03.734Z,23.1
2019-05-12T14:17:00.807Z,23.1
2019-05-12T14:27:00.022Z,23.1
2019-05-12T14:31:29.582Z,23.1
2019-05-12T14:41:24.807Z,23.1
2019-05-12T14:51:21.560Z,23.1
2019-05-12T15:01:20.776Z,23.1
2019-05-12T15:11:19.997Z,23.1
2019-05-12T15:21:21.237Z,23.1
2019-05-12T15:31:18.506Z,23.1
2019-05-12T15:40:05.646Z,23.1
2019-05-12T15:50:04.815Z,23.1
2019-05-12T15:54:45.598Z,23.1
2019-05-12T16:04:42.601Z,23.1
2019-05-12T16:14:41.025Z,23.1
2019-05-12T16:24:37.121Z,23
2019-05-12T16:34:44.733Z,22.9
2019-05-12T16:44:35.554Z,22.7
2019-05-12T16:50:23.637Z,22.8
2019-05-12T17:00:14.575Z,22.8
2019-05-12T17:10:16.341Z,22.6
2019-05-12T17:20:13.761Z,22.4
2019-05-12T17:30:13.488Z,22.5
2019-05-12T17:40:15.322Z,22.6
2019-05-12T17:50:10.710Z,22.7
2019-05-12T18:00:10.826Z,22.8
2019-05-12T18:10:09.291Z,22.8
2019-05-12T18:20:08.573Z,22.8
2019-05-12T18:30:07.875Z,22.9
2019-05-12T18:34:39.550Z,22.9
2019-05-12T18:44:38.749Z,22.9
2019-05-12T18:54:42.913Z,22.9
2019-05-12T19:04:39.580Z,22.9
2019-05-12T19:14:40.234Z,22.8
2019-05-12T19:24:36.263Z,22.8
2019-05-12T19:34:37.249Z,22.8
2019-05-12T19:44:34.362Z,22.8
2019-05-12T19:54:34.587Z,22.7
2019-05-12T20:04:34.435Z,22.6
2019-05-12T20:14:34.307Z,22.6
2019-05-12T20:24:31.352Z,22.6
2019-05-12T20:34:43.953Z,22.6
2019-05-12T20:44:29.829Z,22.6
2019-05-12T20:54:29.047Z,22.7
2019-05-12T21:04:34.276Z,22.7
2019-05-12T21:08:03.063Z,22.7
2019-05-12T21:18:04.352Z,22.7
2019-05-12T21:28:02.326Z,22.6
2019-05-12T21:37:57.328Z,22.6
2019-05-12T21:47:56.955Z,22.6
2019-05-12T21:57:55.759Z,22.5
2019-05-12T22:07:54.994Z,22.4
2019-05-12T22:17:54.370Z,22.4
2019-05-12T22:27:53.989Z,22.4
2019-05-12T22:37:53.518Z,22.4
2019-05-12T22:47:55.063Z,22.3
2019-05-12T22:57:51.496Z,22.3
2019-05-12T23:07:50.752Z,22.3
2019-05-12T23:17:49.974Z,22.2
2019-05-12T23:27:49.190Z,22.2
2019-05-12T23:37:48.406Z,22.2
2019-05-12T23:47:47.612Z,22.1
2019-05-12T23:57:46.827Z,22.1
